Time;durP1;ratioP1;P1;durP2;ratioP2;P2;SDS_P1;SDS_P2;PMS_P1;PMS_P2;Temp;Humidity;BMP_temperature;BMP_pressure;BME280_temperature;BME280_humidity;BME280_pressure;Samples;Min_cycle;Max_cycle;Signal;HPM_P1;HPM_P2
2022/12/31 00:00:39;;;;;;;8.98;2.30;;;;;;;9.89;100.00;100299.00;5055118;28;20032;-79
2022/12/31 00:03:07;;;;;;;12.48;2.00;;;;;;;9.88;100.00;100299.16;5054678;28;20043;-80
2022/12/31 00:05:34;;;;;;;10.32;2.13;;;;;;;9.87;100.00;100314.25;5053889;28;20079;-80
2022/12/31 00:08:01;;;;;;;8.25;1.63;;;;;;;9.85;100.00;100310.94;5054180;28;20037;-81
2022/12/31 00:10:27;;;;;;;10.93;1.90;;;;;;;9.87;100.00;100318.75;5055257;28;20451;-80
2022/12/31 00:12:53;;;;;;;7.65;1.80;;;;;;;9.85;100.00;100318.91;5054134;28;20029;-80
2022/12/31 00:15:18;;;;;;;14.40;2.15;;;;;;;9.82;100.00;100315.69;5053940;28;20039;-80
2022/12/31 00:17:44;;;;;;;11.68;2.20;;;;;;;9.81;100.00;100312.19;5053537;28;20466;-80
2022/12/31 00:20:10;;;;;;;9.48;1.88;;;;;;;9.79;100.00;100313.31;5052526;28;20063;-80
2022/12/31 00:22:36;;;;;;;11.85;2.13;;;;;;;9.76;100.00;100318.94;5053382;28;20107;-80
2022/12/31 00:25:01;;;;;;;11.73;1.85;;;;;;;9.74;100.00;100323.56;5053458;28;20048;-80
2022/12/31 00:27:30;;;;;;;15.57;2.22;;;;;;;9.73;100.00;100328.03;5053364;28;20060;-79
2022/12/31 00:29:55;;;;;;;10.82;2.08;;;;;;;9.73;100.00;100333.34;5053248;28;20033;-80
2022/12/31 00:32:20;;;;;;;12.05;1.80;;;;;;;9.70;100.00;100315.03;5053640;28;20435;-80
2022/12/31 00:34:46;;;;;;;13.57;1.98;;;;;;;9.66;100.00;100326.97;5052906;28;20044;-80
2022/12/31 00:37:11;;;;;;;11.95;2.17;;;;;;;9.65;100.00;100312.00;5052753;28;20033;-81
2022/12/31 00:39:36;;;;;;;11.02;2.10;;;;;;;9.64;100.00;100315.63;5051827;28;20078;-80
2022/12/31 00:42:02;;;;;;;13.57;2.20;;;;;;;9.65;100.00;100317.31;5053730;28;20118;-81
2022/12/31 00:44:27;;;;;;;12.95;2.58;;;;;;;9.62;100.00;100318.44;5053138;28;20385;-81
2022/12/31 00:46:52;;;;;;;13.95;2.50;;;;;;;9.62;100.00;100307.81;5052992;28;20413;-80
2022/12/31 00:49:18;;;;;;;13.13;2.50;;;;;;;9.62;100.00;100309.63;5052998;28;20116;-80
2022/12/31 00:51:45;;;;;;;14.43;2.10;;;;;;;9.61;100.00;100307.94;5051745;28;20072;-82
2022/12/31 00:54:10;;;;;;;11.15;1.88;;;;;;;9.57;100.00;100317.19;5053369;28;20037;-81
2022/12/31 00:56:36;;;;;;;15.77;2.03;;;;;;;9.56;100.00;100308.38;5052930;28;20055;-81
2022/12/31 00:59:01;;;;;;;11.30;2.05;;;;;;;9.55;100.00;100312.00;5053062;28;20401;-81
2022/12/31 01:01:29;;;;;;;11.88;2.00;;;;;;;9.55;100.00;100308.53;5053189;28;20453;-81
2022/12/31 01:04:01;;;;;;;10.38;1.92;;;;;;;9.55;100.00;100301.38;5052748;28;20025;-81
2022/12/31 01:06:27;;;;;;;11.35;2.00;;;;;;;9.56;100.00;100297.75;5053148;28;20036;-81
2022/12/31 01:08:54;;;;;;;6.10;1.50;;;;;;;9.56;100.00;100292.44;5052804;28;20036;-80
2022/12/31 01:11:22;;;;;;;7.45;1.80;;;;;;;9.53;100.00;100279.47;5053143;28;20038;-80
2022/12/31 01:13:55;;;;;;;9.60;1.92;;;;;;;9.54;100.00;100286.47;5052505;28;20071;-80
2022/12/31 01:16:29;;;;;;;9.75;1.83;;;;;;;9.55;100.00;100284.63;5052717;28;20025;-80
2022/12/31 01:18:57;;;;;;;10.90;1.88;;;;;;;9.55;100.00;100284.63;5052523;28;20032;-80
2022/12/31 01:21:23;;;;;;;10.43;2.10;;;;;;;9.57;100.00;100295.94;5052797;28;20039;-80
2022/12/31 01:23:48;;;;;;;10.73;1.80;;;;;;;9.52;100.00;100293.72;5052372;28;20033;-80
2022/12/31 01:26:16;;;;;;;10.48;1.98;;;;;;;9.52;100.00;100299.88;5052463;28;20371;-80
2022/12/31 01:28:42;;;;;;;9.63;1.95;;;;;;;9.51;100.00;100298.19;5052413;28;20033;-79
2022/12/31 01:31:13;;;;;;;8.45;1.75;;;;;;;9.51;100.00;100286.75;5052768;28;20086;-79
2022/12/31 01:33:39;;;;;;;8.38;1.58;;;;;;;9.52;100.00;100289.25;5052773;28;20033;-80
2022/12/31 01:36:05;;;;;;;9.50;2.00;;;;;;;9.53;100.00;100292.75;5052358;28;20551;-81
2022/12/31 01:38:32;;;;;;;8.93;2.03;;;;;;;9.55;100.00;100293.41;5052533;28;20033;-81
2022/12/31 01:40:58;;;;;;;7.22;2.08;;;;;;;9.53;100.00;100293.56;5052228;28;20124;-81
2022/12/31 01:43:23;;;;;;;8.07;2.03;;;;;;;9.50;100.00;100291.22;5052437;28;20108;-81
2022/12/31 01:45:52;;;;;;;7.32;1.80;;;;;;;9.49;100.00;100294.88;5052233;28;20036;-81
2022/12/31 01:48:23;;;;;;;9.88;1.73;;;;;;;9.46;100.00;100297.78;5052195;28;20112;-81
2022/12/31 01:50:48;;;;;;;7.55;1.45;;;;;;;9.46;100.00;100302.28;5052178;28;20059;-82
2022/12/31 01:53:16;;;;;;;8.75;1.77;;;;;;;9.42;100.00;100285.81;5052552;28;20112;-81
2022/12/31 01:55:46;;;;;;;6.20;1.70;;;;;;;9.40;100.00;100271.00;5052535;28;20036;-81
2022/12/31 01:58:19;;;;;;;8.73;1.70;;;;;;;9.35;100.00;100266.94;5052512;28;20029;-80
2022/12/31 02:00:45;;;;;;;10.32;1.92;;;;;;;9.34;100.00;100273.25;5052182;28;20021;-80
2022/12/31 02:03:12;;;;;;;9.20;1.80;;;;;;;9.34;100.00;100315.75;5052326;28;20029;-82
2022/12/31 02:06:00;;;;;;;8.90;1.67;;;;;;;9.33;100.00;100310.53;5052325;28;20044;-81
2022/12/31 02:08:25;;;;;;;7.53;1.90;;;;;;;9.34;100.00;100317.53;5052332;28;20392;-81
2022/12/31 02:10:50;;;;;;;5.32;1.23;;;;;;;9.31;100.00;100318.66;5051967;28;20029;-81
2022/12/31 02:13:16;;;;;;;5.57;1.40;;;;;;;9.30;100.00;100324.09;5051013;28;20072;-81
2022/12/31 02:15:44;;;;;;;12.73;2.00;;;;;;;9.26;100.00;100330.69;5052147;28;20061;-81
2022/12/31 02:18:27;;;;;;;11.05;1.98;;;;;;;9.27;100.00;100330.56;5051838;28;20033;-81
2022/12/31 02:21:24;;;;;;;11.05;2.20;;;;;;;9.24;100.00;100332.66;5051798;28;20036;-81
2022/12/31 02:23:49;;;;;;;10.63;2.20;;;;;;;9.22;100.00;100324.81;5051714;28;20055;-80
2022/12/31 02:26:24;;;;;;;9.30;1.90;;;;;;;9.22;100.00;100329.31;5051944;28;20037;-81
2022/12/31 02:28:58;;;;;;;8.27;2.05;;;;;;;9.21;100.00;100330.28;5051889;28;20033;-81
2022/12/31 02:31:33;;;;;;;9.00;2.17;;;;;;;9.22;100.00;100321.34;5051842;28;20473;-82
2022/12/31 02:34:11;;;;;;;8.10;1.80;;;;;;;9.20;100.00;100312.69;5050475;28;20393;-81
2022/12/31 02:36:42;;;;;;;9.35;2.15;;;;;;;9.18;100.00;100318.13;5052252;28;20158;-81
2022/12/31 02:39:10;;;;;;;13.00;2.08;;;;;;;9.16;100.00;100320.09;5051806;28;20040;-82
2022/12/31 02:41:51;;;;;;;11.80;2.13;;;;;;;9.14;100.00;100325.53;5052117;28;20500;-81
2022/12/31 02:44:26;;;;;;;12.50;1.58;;;;;;;9.08;100.00;100318.16;5052035;28;20416;-81
2022/12/31 02:47:19;;;;;;;7.95;1.52;;;;;;;9.03;100.00;100331.00;5051700;28;20032;-81
2022/12/31 02:49:57;;;;;;;10.45;1.85;;;;;;;8.98;100.00;100333.25;5052039;28;20519;-80
2022/12/31 02:52:59;;;;;;;10.75;2.00;;;;;;;8.92;100.00;100337.28;5051803;28;20037;-81
2022/12/31 02:55:37;;;;;;;8.68;1.73;;;;;;;8.89;100.00;100350.00;5052234;28;20029;-81
2022/12/31 03:04:34;;;;;;;8.55;2.17;;;;;;;8.77;100.00;100352.78;5055154;28;20107;-81
2022/12/31 03:07:09;;;;;;;7.70;1.30;;;;;;;8.73;100.00;100346.13;5055094;28;20041;-81
2022/12/31 03:09:35;;;;;;;7.60;1.60;;;;;;;8.68;100.00;100358.09;5055474;28;20040;-82
2022/12/31 03:14:47;;;;;;;8.00;1.50;;;;;;;8.57;100.00;100346.66;5055154;28;20039;-81
2022/12/31 03:17:12;;;;;;;7.72;1.48;;;;;;;8.53;100.00;100347.91;5054931;28;20924;-80
2022/12/31 03:22:28;;;;;;;5.80;1.23;;;;;;;8.50;100.00;100350.00;5055066;28;20047;-81
2022/12/31 03:27:46;;;;;;;6.68;1.20;;;;;;;8.40;100.00;100332.22;5055097;28;20213;-81
2022/12/31 03:30:13;;;;;;;5.50;1.00;;;;;;;8.38;100.00;100322.75;5054470;28;20040;-83
2022/12/31 03:32:40;;;;;;;6.43;1.33;;;;;;;8.32;100.00;100313.50;5054646;28;20315;-81
2022/12/31 03:35:06;;;;;;;5.03;0.90;;;;;;;8.27;100.00;100313.06;5054049;28;20484;-80
2022/12/31 03:37:32;;;;;;;7.30;1.10;;;;;;;8.25;100.00;100317.69;5054929;28;20032;-80
2022/12/31 03:39:57;;;;;;;4.90;1.33;;;;;;;8.25;100.00;100315.03;5054471;28;20381;-80
2022/12/31 03:42:22;;;;;;;6.30;1.20;;;;;;;8.23;100.00;100296.63;5054633;28;20099;-80
2022/12/31 03:44:48;;;;;;;6.03;1.08;;;;;;;8.23;100.00;100298.44;5054730;28;20112;-81
2022/12/31 03:47:13;;;;;;;5.88;1.00;;;;;;;8.20;100.00;100285.47;5054095;28;20029;-81
2022/12/31 03:49:38;;;;;;;4.78;1.08;;;;;;;8.18;100.00;100298.84;5054513;28;20033;-80
2022/12/31 03:52:05;;;;;;;4.43;1.25;;;;;;;8.18;100.00;100305.94;5053803;28;20116;-80
2022/12/31 03:54:31;;;;;;;9.05;1.60;;;;;;;8.15;100.00;100300.91;5054463;28;20059;-80
2022/12/31 03:56:56;;;;;;;8.50;1.40;;;;;;;8.12;100.00;100308.19;5053039;28;20116;-81
2022/12/31 03:59:22;;;;;;;6.20;1.73;;;;;;;8.12;100.00;100310.84;5052892;28;20433;-81
2022/12/31 04:01:47;;;;;;;5.47;1.38;;;;;;;8.13;100.00;100314.31;5053031;28;20154;-81
2022/12/31 04:04:12;;;;;;;8.25;1.05;;;;;;;8.16;100.00;100329.09;5053534;28;20075;-81
2022/12/31 04:06:38;;;;;;;9.43;1.30;;;;;;;8.18;100.00;100325.34;5054186;28;20068;-81
2022/12/31 04:09:03;;;;;;;7.53;1.30;;;;;;;8.19;100.00;100316.41;5053727;28;20381;-80
2022/12/31 04:11:28;;;;;;;8.98;1.98;;;;;;;8.19;100.00;100324.34;5053858;28;20426;-80
2022/12/31 04:13:54;;;;;;;6.97;1.50;;;;;;;8.21;100.00;100318.91;5054092;28;20381;-81
2022/12/31 04:16:19;;;;;;;6.95;1.58;;;;;;;8.24;100.00;100323.94;5052396;28;20064;-81
2022/12/31 04:18:44;;;;;;;8.90;1.75;;;;;;;8.24;100.00;100332.75;5053607;28;20036;-81
2022/12/31 04:21:10;;;;;;;7.25;2.00;;;;;;;8.29;100.00;100325.22;5053905;28;20526;-81
2022/12/31 04:23:35;;;;;;;8.15;1.92;;;;;;;8.28;100.00;100312.09;5053938;28;20544;-82
2022/12/31 04:26:00;;;;;;;7.07;2.10;;;;;;;8.29;100.00;100313.78;5053911;28;20029;-81
2022/12/31 04:28:26;;;;;;;7.93;1.98;;;;;;;8.30;100.00;100312.81;5053442;28;20029;-82
2022/12/31 04:30:51;;;;;;;7.70;2.17;;;;;;;8.30;100.00;100318.97;5053638;28;20461;-81
2022/12/31 04:33:16;;;;;;;5.30;1.73;;;;;;;8.32;100.00;100321.47;5053314;28;20043;-80
2022/12/31 04:35:43;;;;;;;6.75;2.00;;;;;;;8.35;100.00;100331.78;5053680;28;20059;-82
2022/12/31 04:38:08;;;;;;;5.57;2.10;;;;;;;8.36;100.00;100317.56;5052257;28;20330;-80
2022/12/31 04:40:33;;;;;;;3.80;1.90;;;;;;;8.36;100.00;100320.22;5053374;28;20036;-83
2022/12/31 04:42:59;;;;;;;5.60;2.05;;;;;;;8.39;100.00;100314.66;5053613;28;20143;-80
2022/12/31 04:45:24;;;;;;;4.57;2.25;;;;;;;8.40;100.00;100305.69;5052852;28;20274;-80
2022/12/31 04:47:50;;;;;;;6.38;2.70;;;;;;;8.39;100.00;100309.34;5053679;28;20527;-81
2022/12/31 04:50:15;;;;;;;3.25;2.13;;;;;;;8.39;100.00;100312.00;5053086;28;20036;-80
2022/12/31 04:52:40;;;;;;;5.22;2.65;;;;;;;8.39;100.00;100314.66;5053483;28;20033;-80
2022/12/31 04:55:06;;;;;;;4.82;2.35;;;;;;;8.42;100.00;100321.47;5053389;28;20032;-80
2022/12/31 04:57:32;;;;;;;5.63;3.30;;;;;;;8.41;100.00;100319.81;5053990;28;20024;-80
2022/12/31 04:59:57;;;;;;;7.43;4.03;;;;;;;8.41;100.00;100315.34;5054641;28;20109;-79
2022/12/31 05:02:22;;;;;;;11.07;5.40;;;;;;;8.43;100.00;100318.72;5052661;28;20082;-81
2022/12/31 05:04:48;;;;;;;8.57;5.65;;;;;;;8.45;100.00;100322.06;5053126;28;20064;-81
2022/12/31 05:07:13;;;;;;;11.43;6.15;;;;;;;8.46;100.00;100318.47;5052762;28;20036;-81
2022/12/31 05:09:38;;;;;;;11.45;6.47;;;;;;;8.48;100.00;100307.72;5052297;28;20044;-81
2022/12/31 05:12:04;;;;;;;13.38;7.15;;;;;;;8.52;100.00;100310.91;5052946;28;20036;-80
2022/12/31 05:14:29;;;;;;;14.30;7.55;;;;;;;8.52;100.00;100305.59;5052477;28;20032;-79
2022/12/31 05:16:55;;;;;;;13.43;7.22;;;;;;;8.54;100.00;100315.09;5052555;28;20532;-81
2022/12/31 05:19:21;;;;;;;19.83;9.75;;;;;;;8.64;100.00;100307.16;5052485;28;20111;-80
2022/12/31 05:22:27;;;;;;;16.88;8.77;;;;;;;8.66;100.00;100307.84;5052804;28;20037;-80
2022/12/31 05:24:31;;;;;;;13.02;7.10;;;;;;;8.68;100.00;100300.59;5051371;28;20040;-82
2022/12/31 05:26:57;;;;;;;13.30;6.38;;;;;;;8.71;100.00;100304.78;5053028;28;20045;-80
2022/12/31 05:29:22;;;;;;;8.52;4.85;;;;;;;8.79;100.00;100312.88;5052073;28;20041;-80
2022/12/31 05:31:47;;;;;;;8.05;4.80;;;;;;;8.82;100.00;100308.13;5051716;28;20033;-82
2022/12/31 05:34:13;;;;;;;8.35;4.72;;;;;;;8.87;100.00;100302.41;5052753;28;20078;-79
2022/12/31 05:36:38;;;;;;;8.02;4.30;;;;;;;8.90;100.00;100298.63;5052599;28;20489;-80
2022/12/31 05:39:03;;;;;;;6.18;3.70;;;;;;;8.90;100.00;100303.94;5059157;28;20033;-80
2022/12/31 05:41:29;;;;;;;6.97;3.90;;;;;;;8.92;100.00;100304.63;5053124;28;20036;-80
2022/12/31 05:43:54;;;;;;;5.05;3.58;;;;;;;8.95;100.00;100312.31;5052502;28;20112;-81
2022/12/31 05:46:19;;;;;;;6.22;3.40;;;;;;;8.99;100.00;100308.41;5050930;28;20037;-81
2022/12/31 05:48:45;;;;;;;6.03;3.42;;;;;;;9.04;100.00;100305.31;5052238;28;20029;-81
2022/12/31 05:51:10;;;;;;;4.03;2.90;;;;;;;9.09;100.00;100309.22;5052243;28;20388;-81
2022/12/31 05:53:35;;;;;;;3.17;2.65;;;;;;;9.11;100.00;100306.44;5052163;28;20033;-80
2022/12/31 05:56:01;;;;;;;3.00;2.38;;;;;;;9.15;100.00;100308.66;5052190;28;20029;-81
2022/12/31 05:58:26;;;;;;;4.28;2.90;;;;;;;9.20;100.00;100310.03;5051733;28;20041;-80
2022/12/31 06:00:51;;;;;;;2.42;1.70;;;;;;;9.25;100.00;100310.44;5052429;28;20025;-81
2022/12/31 06:03:17;;;;;;;3.92;1.90;;;;;;;9.25;100.00;100313.91;5051946;28;20431;-79
2022/12/31 06:05:42;;;;;;;2.20;1.98;;;;;;;9.29;100.00;100317.13;5051123;28;20032;-79
2022/12/31 06:08:09;;;;;;;1.90;1.80;;;;;;;9.34;100.00;100320.19;5052312;28;20075;-80
2022/12/31 06:10:35;;;;;;;2.80;1.80;;;;;;;9.38;100.00;100312.78;5052391;28;20048;-80
2022/12/31 06:13:00;;;;;;;3.10;1.80;;;;;;;9.44;100.00;100323.66;5052350;28;20025;-79
2022/12/31 06:15:25;;;;;;;2.60;2.00;;;;;;;9.48;100.00;100318.88;5051811;28;20044;-82
2022/12/31 06:17:51;;;;;;;4.32;1.90;;;;;;;9.53;100.00;100319.31;5052174;28;20064;-80
2022/12/31 06:20:16;;;;;;;2.22;1.80;;;;;;;9.60;100.00;100308.91;5052343;28;20523;-80
2022/12/31 06:22:41;;;;;;;3.30;1.90;;;;;;;9.70;100.00;100309.72;5051781;28;20036;-80
2022/12/31 06:25:07;;;;;;;3.42;1.70;;;;;;;9.78;100.00;100308.97;5051868;28;20087;-80
2022/12/31 06:27:33;;;;;;;1.90;1.48;;;;;;;9.85;100.00;100304.75;5050444;28;20041;-81
2022/12/31 06:29:58;;;;;;;2.60;1.52;;;;;;;9.89;100.00;100314.94;5052134;28;20037;-81
2022/12/31 06:32:23;;;;;;;3.05;1.88;;;;;;;9.99;100.00;100300.78;5051708;28;20037;-80
2022/12/31 06:34:49;;;;;;;1.42;1.33;;;;;;;10.05;100.00;100313.50;5052950;28;20037;-81
2022/12/31 06:37:14;;;;;;;2.53;1.50;;;;;;;10.11;100.00;100304.09;5055653;28;20071;-81
2022/12/31 06:39:39;;;;;;;1.90;1.50;;;;;;;10.15;100.00;100305.44;5055639;28;20468;-82
2022/12/31 06:42:05;;;;;;;1.20;1.10;;;;;;;10.17;100.00;100306.16;5055871;28;20040;-81
2022/12/31 06:44:30;;;;;;;1.98;1.33;;;;;;;10.23;100.00;100313.53;5055236;28;20051;-82
2022/12/31 06:46:55;;;;;;;2.13;1.20;;;;;;;10.24;100.00;100310.72;5054293;28;20113;-81
2022/12/31 06:49:21;;;;;;;2.05;1.10;;;;;;;10.30;100.00;100319.06;5055671;28;20032;-81
2022/12/31 06:51:46;;;;;;;3.20;1.20;;;;;;;10.29;100.00;100317.41;5055371;28;20037;-81
2022/12/31 06:54:12;;;;;;;2.90;1.10;;;;;;;10.35;100.00;100328.28;5055514;28;20037;-81
2022/12/31 06:56:38;;;;;;;2.05;1.00;;;;;;;10.47;100.00;100326.25;5055266;28;20083;-80
2022/12/31 06:59:04;;;;;;;2.08;1.00;;;;;;;10.55;100.00;100322.84;5055569;28;20033;-81
2022/12/31 07:01:37;;;;;;;1.55;0.90;;;;;;;10.63;100.00;100332.72;5055233;28;20044;-83
2022/12/31 07:04:47;;;;;;;2.38;0.98;;;;;;;10.66;100.00;100343.91;5056075;28;20025;-83
2022/12/31 07:07:13;;;;;;;5.13;1.00;;;;;;;10.73;100.00;100326.34;5013636;28;20077;-83
2022/12/31 07:09:51;;;;;;;1.17;0.90;;;;;;;10.77;100.00;100329.53;5012984;28;20034;-82
2022/12/31 07:12:47;;;;;;;2.53;0.95;;;;;;;10.80;100.00;100326.56;5037945;28;20371;-83
2022/12/31 07:15:29;;;;;;;2.55;0.82;;;;;;;10.79;100.00;100343.50;5055355;28;20032;-83
2022/12/31 07:18:17;;;;;;;3.67;1.00;;;;;;;10.88;100.00;100328.47;5055272;28;20079;-82
2022/12/31 07:20:43;;;;;;;3.13;0.80;;;;;;;10.83;100.00;100333.41;5054693;28;20028;-82
2022/12/31 07:23:09;;;;;;;3.08;0.80;;;;;;;10.80;100.00;100345.19;5055130;28;20029;-84
2022/12/31 07:25:37;;;;;;;2.10;0.88;;;;;;;10.79;100.00;100348.84;5054592;28;20061;-82
2022/12/31 07:28:08;;;;;;;1.95;0.80;;;;;;;10.75;100.00;100350.97;5053888;28;20418;-82
2022/12/31 07:30:48;;;;;;;4.22;1.17;;;;;;;10.76;100.00;100355.31;5054506;28;20374;-81
2022/12/31 07:33:40;;;;;;;1.13;1.00;;;;;;;10.81;100.00;100354.84;5053921;28;20329;-82
2022/12/31 07:36:33;;;;;;;4.75;0.80;;;;;;;10.82;100.00;100347.69;5054864;28;20065;-83
2022/12/31 07:39:07;;;;;;;2.20;1.00;;;;;;;10.83;100.00;100357.38;5055050;28;20461;-83
2022/12/31 07:41:54;;;;;;;4.65;1.48;;;;;;;10.81;100.00;100354.84;5054729;28;20033;-83
2022/12/31 07:44:56;;;;;;;3.63;1.90;;;;;;;10.82;100.00;100364.50;5054822;28;20106;-81
2022/12/31 07:47:24;;;;;;;3.55;1.00;;;;;;;10.78;100.00;100365.81;5054199;28;20021;-85
2022/12/31 07:49:51;;;;;;;4.22;0.88;;;;;;;10.74;100.00;100359.13;5054436;28;20025;-85
2022/12/31 07:52:16;;;;;;;2.40;0.60;;;;;;;10.71;100.00;100364.75;5054668;28;20036;-85
2022/12/31 07:54:42;;;;;;;3.10;0.60;;;;;;;10.68;100.00;100362.38;5054251;28;20035;-86
2022/12/31 07:57:11;;;;;;;4.25;0.70;;;;;;;10.68;100.00;100359.72;5054503;28;20029;-87
2022/12/31 07:59:39;;;;;;;2.38;0.80;;;;;;;10.69;100.00;100358.72;5054483;28;20611;-87
2022/12/31 08:02:30;;;;;;;3.45;0.80;;;;;;;10.68;100.00;100336.59;5054715;28;20036;-85
2022/12/31 08:05:30;;;;;;;3.65;0.90;;;;;;;10.73;100.00;100354.78;5054894;28;20082;-83
2022/12/31 08:08:27;;;;;;;6.70;0.90;;;;;;;10.73;100.00;100390.22;5054465;28;20036;-86
2022/12/31 08:11:07;;;;;;;5.03;1.13;;;;;;;10.75;100.00;100392.72;5054030;28;20021;-83
2022/12/31 08:13:32;;;;;;;6.50;1.20;;;;;;;10.78;100.00;100397.75;5054329;28;20029;-79
2022/12/31 08:15:58;;;;;;;6.53;1.23;;;;;;;10.77;100.00;100396.06;5053525;28;20101;-83
2022/12/31 08:18:24;;;;;;;12.27;1.80;;;;;;;10.76;100.00;100397.03;5054022;28;20120;-81
2022/12/31 08:21:08;;;;;;;9.38;2.00;;;;;;;10.76;100.00;100378.41;5053714;28;20087;-83
2022/12/31 08:23:33;;;;;;;8.20;1.52;;;;;;;10.75;100.00;100401.53;5053788;28;20032;-82
2022/12/31 08:26:20;;;;;;;7.80;1.70;;;;;;;10.77;100.00;100401.38;5053791;28;20414;-80
2022/12/31 08:29:00;;;;;;;8.73;1.38;;;;;;;10.76;100.00;100402.34;5052076;28;20307;-82
2022/12/31 08:31:46;;;;;;;12.40;1.77;;;;;;;10.76;100.00;100419.19;5053565;28;20020;-80
2022/12/31 08:34:53;;;;;;;9.60;1.75;;;;;;;10.83;100.00;100416.75;5054044;28;20477;-85
2022/12/31 08:37:40;;;;;;;14.25;1.70;;;;;;;10.94;100.00;100440.50;5032709;28;20126;-83
2022/12/31 08:40:21;;;;;;;8.30;1.42;;;;;;;11.00;100.00;100419.56;5053833;28;20079;-82
2022/12/31 08:42:55;;;;;;;6.47;1.37;;;;;;;11.07;100.00;100402.00;5053122;28;20035;-77
2022/12/31 08:45:46;;;;;;;7.38;1.25;;;;;;;11.11;100.00;100436.16;5052952;28;20441;-80
2022/12/31 08:48:21;;;;;;;9.32;1.58;;;;;;;11.17;100.00;100421.41;5053666;28;20052;-84
2022/12/31 08:50:46;;;;;;;9.48;1.58;;;;;;;11.25;100.00;100442.75;5053070;28;20282;-80
2022/12/31 08:53:12;;;;;;;6.05;1.30;;;;;;;11.28;100.00;100445.09;5045947;28;20040;-81
2022/12/31 08:55:38;;;;;;;8.43;1.83;;;;;;;11.32;100.00;100439.50;5046016;28;20074;-81
2022/12/31 08:58:40;;;;;;;6.20;1.20;;;;;;;11.34;100.00;100432.19;5052651;28;20029;-85
2022/12/31 09:01:07;;;;;;;8.70;1.42;;;;;;;11.37;100.00;100435.38;5053352;28;20071;-80
2022/12/31 09:04:14;;;;;;;12.32;5.13;;;;;;;11.41;100.00;100455.38;5052468;28;20037;-80
2022/12/31 09:06:47;;;;;;;8.48;2.50;;;;;;;11.46;100.00;100457.56;5041500;28;20394;-84
2022/12/31 09:09:43;;;;;;;9.77;2.50;;;;;;;11.46;100.00;100455.78;5053210;28;20025;-82
2022/12/31 09:12:23;;;;;;;7.63;1.90;;;;;;;11.49;100.00;100456.44;5052622;28;20487;-83
2022/12/31 09:15:05;;;;;;;11.18;2.50;;;;;;;11.50;100.00;100469.59;5053006;28;20029;-80
2022/12/31 09:17:34;;;;;;;9.70;1.90;;;;;;;11.45;100.00;100477.25;5052749;28;20029;-80
2022/12/31 09:20:00;;;;;;;9.68;1.80;;;;;;;11.51;100.00;100476.63;5052549;28;20032;-79
2022/12/31 09:22:26;;;;;;;9.07;1.75;;;;;;;11.59;100.00;100481.16;5051895;28;20036;-78
2022/12/31 09:24:51;;;;;;;6.95;1.63;;;;;;;11.67;100.00;100480.41;5051478;28;20032;-77
2022/12/31 09:27:17;;;;;;;6.30;1.60;;;;;;;11.75;100.00;100470.63;5051012;28;20033;-82
2022/12/31 09:29:59;;;;;;;5.10;1.38;;;;;;;11.74;100.00;100476.94;5051785;28;20118;-79
2022/12/31 09:32:31;;;;;;;8.80;2.15;;;;;;;11.62;100.00;100495.00;5052283;28;20025;-76
2022/12/31 09:35:16;;;;;;;5.93;1.20;;;;;;;11.56;100.00;100500.13;5050747;28;20039;-79
2022/12/31 09:37:48;;;;;;;6.03;1.85;;;;;;;11.50;100.00;100484.78;5051984;28;20037;-80
2022/12/31 09:40:37;;;;;;;4.68;1.63;;;;;;;11.45;100.00;100485.22;5051970;28;20033;-78
2022/12/31 09:43:25;;;;;;;5.10;1.70;;;;;;;11.39;100.00;100492.00;5052403;28;20025;-78
2022/12/31 09:45:59;;;;;;;5.03;1.45;;;;;;;11.39;100.00;100492.00;5050936;28;20050;-78
2022/12/31 09:48:37;;;;;;;7.78;1.45;;;;;;;11.38;100.00;100497.47;5051557;28;20033;-75
2022/12/31 09:51:46;;;;;;;8.63;1.67;;;;;;;11.35;100.00;100516.44;5051345;28;20108;-76
2022/12/31 09:54:26;;;;;;;6.15;1.63;;;;;;;11.42;100.00;100493.50;5029387;28;20025;-77
2022/12/31 09:57:10;;;;;;;6.22;1.20;;;;;;;11.43;100.00;100522.66;5050023;28;20040;-80
2022/12/31 09:59:42;;;;;;;4.75;1.15;;;;;;;11.46;100.00;100489.56;5051777;28;20037;-82
2022/12/31 10:02:15;;;;;;;4.00;1.23;;;;;;;11.52;100.00;100504.91;5049429;28;20017;-79
2022/12/31 10:05:00;;;;;;;1.95;1.00;;;;;;;11.58;100.00;100514.97;5052170;28;20357;-80
2022/12/31 10:07:50;;;;;;;7.30;1.65;;;;;;;11.67;100.00;100510.53;5064895;28;20385;-83
2022/12/31 10:10:29;;;;;;;5.55;1.30;;;;;;;11.78;100.00;100520.97;5051017;28;20477;-82
2022/12/31 10:13:15;;;;;;;4.22;1.30;;;;;;;11.83;100.00;100539.16;5053005;28;20462;-81
2022/12/31 10:15:55;;;;;;;7.32;1.50;;;;;;;11.84;100.00;100530.19;5057090;28;20029;-82
2022/12/31 10:18:58;;;;;;;4.07;1.85;;;;;;;11.85;100.00;100539.00;5053549;28;20044;-85
2022/12/31 10:21:57;;;;;;;3.85;1.20;;;;;;;11.84;100.00;100535.50;5046653;28;20025;-87
2022/12/31 10:24:31;;;;;;;7.32;2.28;;;;;;;11.85;100.00;100531.84;5055316;28;20025;-81
2022/12/31 10:27:15;;;;;;;4.05;1.65;;;;;;;11.85;100.00;100550.50;5053510;28;20033;-84
2022/12/31 10:30:15;;;;;;;4.78;1.58;;;;;;;11.88;100.00;100541.34;5034796;28;20034;-79
2022/12/31 10:32:46;;;;;;;3.22;1.38;;;;;;;11.88;100.00;100544.84;5068279;28;20056;-83
2022/12/31 10:35:12;;;;;;;6.60;1.80;;;;;;;11.89;100.00;100561.69;5055520;28;20045;-82
2022/12/31 10:37:59;;;;;;;4.70;1.60;;;;;;;11.87;100.00;100543.19;5054298;28;20060;-85
2022/12/31 10:40:56;;;;;;;5.25;1.58;;;;;;;11.88;100.00;100565.34;5043761;28;20542;-81
2022/12/31 10:43:55;;;;;;;2.97;1.40;;;;;;;11.88;100.00;100565.34;5039064;28;20060;-85
2022/12/31 10:46:59;;;;;;;5.63;1.65;;;;;;;11.88;100.00;100547.50;5050149;28;20112;-81
2022/12/31 10:49:43;;;;;;;3.35;1.48;;;;;;;11.84;100.00;100551.50;5057002;28;20398;-83
2022/12/31 10:52:39;;;;;;;6.03;1.85;;;;;;;11.84;100.00;100554.16;5054336;28;20202;-85
2022/12/31 10:55:38;;;;;;;6.65;1.65;;;;;;;11.82;100.00;100564.13;5049090;28;20025;-80
2022/12/31 10:58:29;;;;;;;5.82;1.92;;;;;;;11.83;100.00;100593.28;5056641;28;20035;-84
2022/12/31 11:01:04;;;;;;;;;;;;;;;11.82;100.00;100577.47;5054841;28;20036;-80
2022/12/31 11:03:44;;;;;;;3.40;1.38;;;;;;;11.78;100.00;100568.94;5053962;28;19912;-79
2022/12/31 11:06:21;;;;;;;4.65;1.30;;;;;;;11.72;100.00;100574.03;5054029;28;20025;-80
2022/12/31 11:09:23;;;;;;;3.72;1.40;;;;;;;11.58;100.00;100578.91;5054113;28;20067;-83
2022/12/31 11:12:09;;;;;;;7.03;2.80;;;;;;;11.51;100.00;100567.22;5052331;28;20122;-80
2022/12/31 11:15:12;;;;;;;6.85;1.98;;;;;;;11.45;100.00;100570.47;5052231;28;20033;-80
2022/12/31 11:18:02;;;;;;;5.47;1.48;;;;;;;11.38;100.00;100585.38;5050438;28;20047;-88
2022/12/31 11:20:33;;;;;;;4.90;1.35;;;;;;;11.33;100.00;100561.00;5053299;28;20033;-84
2022/12/31 11:23:08;;;;;;;5.65;1.38;;;;;;;11.29;100.00;100558.66;5050564;28;20029;-82
2022/12/31 11:25:45;;;;;;;5.57;1.30;;;;;;;11.26;100.00;100564.28;5055098;28;20047;-81
2022/12/31 11:28:21;;;;;;;5.90;1.40;;;;;;;11.25;100.00;100561.75;5053453;28;20047;-82
2022/12/31 11:31:24;;;;;;;5.07;1.52;;;;;;;11.24;100.00;100558.28;5051293;28;20037;-84
2022/12/31 11:34:18;;;;;;;6.32;1.67;;;;;;;11.24;100.00;100542.28;5051776;28;20409;-85
2022/12/31 11:37:08;;;;;;;4.38;1.40;;;;;;;11.27;100.00;100551.78;5053641;28;20053;-76
2022/12/31 11:39:34;;;;;;;3.55;1.38;;;;;;;11.25;100.00;100538.63;5054518;28;20044;-83
2022/12/31 11:42:18;;;;;;;5.65;1.45;;;;;;;11.27;100.00;100546.47;5054250;28;20426;-82
2022/12/31 11:44:56;;;;;;;6.03;1.50;;;;;;;11.29;100.00;100542.66;5058591;28;20104;-82
2022/12/31 11:47:43;;;;;;;5.43;1.63;;;;;;;11.31;100.00;100547.84;5052607;28;20094;-80
2022/12/31 11:50:24;;;;;;;3.85;2.10;;;;;;;11.32;100.00;100530.06;5055373;28;20032;-82
2022/12/31 11:53:03;;;;;;;8.50;1.90;;;;;;;11.33;100.00;100534.38;5054587;28;20119;-86
2022/12/31 11:55:48;;;;;;;7.38;2.08;;;;;;;11.37;100.00;100527.75;5055938;28;20025;-82
2022/12/31 11:58:27;;;;;;;4.65;1.83;;;;;;;11.38;100.00;100527.63;5054140;28;20051;-77
2022/12/31 12:01:00;;;;;;;4.80;1.80;;;;;;;11.40;100.00;100522.13;5054613;28;20075;-81